createdAt,value
2022-12-14T00:02:40.589Z,91.93
2022-12-14T00:05:28.357Z,91.86
2022-12-14T00:08:16.868Z,91.40
2022-12-14T00:11:03.223Z,91.88
2022-12-14T00:13:55.009Z,92.67
2022-12-14T00:16:41.340Z,91.86
2022-12-14T00:19:27.573Z,90.97
2022-12-14T00:22:14.001Z,91.76
2022-12-14T00:25:00.214Z,92.05
2022-12-14T00:27:47.055Z,91.03
2022-12-14T00:30:33.405Z,90.85
2022-12-14T00:33:19.625Z,91.24
2022-12-14T00:36:07.806Z,91.12
2022-12-14T00:38:54.340Z,92.39
2022-12-14T00:41:40.887Z,92.38
2022-12-14T00:44:27.106Z,91.14
2022-12-14T00:47:13.736Z,91.78
2022-12-14T00:49:59.838Z,91.83
2022-12-14T00:52:46.125Z,92.13
2022-12-14T00:55:40.208Z,91.39
2022-12-14T00:58:27.893Z,92.15
2022-12-14T01:01:14.597Z,91.34
2022-12-14T01:04:19.818Z,91.37
2022-12-14T01:07:06.313Z,92.23
2022-12-14T01:09:52.556Z,93.22
2022-12-14T01:12:39.754Z,93.73
2022-12-14T01:15:25.955Z,93.29
2022-12-14T01:18:12.968Z,93.31
2022-12-14T01:21:26.151Z,93.77
2022-12-14T01:24:13.050Z,93.30
2022-12-14T01:26:59.519Z,93.37
2022-12-14T01:29:45.870Z,93.24
2022-12-14T01:32:34.176Z,93.23
2022-12-14T01:35:20.742Z,92.92
2022-12-14T01:38:07.053Z,93.06
2022-12-14T01:40:57.710Z,92.86
2022-12-14T01:43:48.792Z,93.23
2022-12-14T01:46:45.497Z,94.05
2022-12-14T01:49:37.969Z,93.59
2022-12-14T01:52:27.430Z,94.05
2022-12-14T01:55:24.655Z,94.42
2022-12-14T01:58:31.034Z,93.27
2022-12-14T02:01:22.438Z,92.65
2022-12-14T02:04:10.337Z,92.43
2022-12-14T02:07:01.097Z,92.11
2022-12-14T02:09:48.434Z,91.72
2022-12-14T02:12:44.209Z,91.28
2022-12-14T02:15:31.692Z,91.87
2022-12-14T02:18:23.715Z,91.67
2022-12-14T02:21:48.469Z,92.75
2022-12-14T02:24:58.605Z,93.91
2022-12-14T02:28:09.801Z,93.51
2022-12-14T02:31:10.386Z,92.55
2022-12-14T02:34:21.084Z,92.90
2022-12-14T02:37:29.607Z,94.84
2022-12-14T02:40:57.436Z,93.33
2022-12-14T02:43:50.890Z,92.80
2022-12-14T02:46:37.406Z,93.89
2022-12-14T02:49:36.722Z,93.08
2022-12-14T02:52:36.047Z,93.09
2022-12-14T02:55:36.791Z,93.45
2022-12-14T02:58:33.415Z,92.62
2022-12-14T03:01:25.104Z,91.13
2022-12-14T03:04:11.726Z,92.25
2022-12-14T03:07:22.304Z,91.98
2022-12-14T03:10:34.213Z,93.12
2022-12-14T03:13:25.885Z,91.68
2022-12-14T03:16:22.027Z,92.03
2022-12-14T03:19:26.668Z,92.63
2022-12-14T03:22:41.952Z,91.55
2022-12-14T03:25:58.668Z,92.20
2022-12-14T03:29:04.195Z,92.25
2022-12-14T03:31:55.860Z,91.91
2022-12-14T03:35:15.303Z,91.76
2022-12-14T03:38:28.681Z,93.14
2022-12-14T03:41:40.336Z,93.22
2022-12-14T03:44:49.373Z,93.04
2022-12-14T03:48:05.838Z,93.67
2022-12-14T03:51:03.974Z,93.10
2022-12-14T03:53:59.229Z,93.27
2022-12-14T03:57:21.003Z,94.10
2022-12-14T04:00:13.987Z,94.51
2022-12-14T04:03:28.092Z,94.81
2022-12-14T04:06:33.018Z,94.73
2022-12-14T04:09:19.166Z,95.04
2022-12-14T04:12:28.194Z,95.57
2022-12-14T04:15:47.950Z,96.57
2022-12-14T04:19:00.566Z,96.89
2022-12-14T04:21:59.084Z,95.50
2022-12-14T04:25:12.286Z,96.11
2022-12-14T04:28:06.053Z,96.04
2022-12-14T04:30:52.640Z,95.95
2022-12-14T04:33:49.282Z,95.97
2022-12-14T04:36:46.833Z,95.60
2022-12-14T04:39:48.888Z,97.02
2022-12-14T04:42:43.696Z,97.48
2022-12-14T04:45:35.066Z,96.53
2022-12-14T04:48:39.158Z,97.26
2022-12-14T04:51:30.238Z,97.24
2022-12-14T04:54:31.317Z,98.27
2022-12-14T04:57:23.593Z,99.39
2022-12-14T05:00:10.617Z,97.93
2022-12-14T05:03:27.617Z,99.18
2022-12-14T05:06:23.386Z,100.00
2022-12-14T05:09:12.534Z,98.21
2022-12-14T05:12:05.925Z,97.96
2022-12-14T05:15:01.025Z,98.62
2022-12-14T05:17:47.861Z,99.41
2022-12-14T05:20:34.283Z,98.43
2022-12-14T05:23:20.591Z,98.71
2022-12-14T05:26:06.875Z,99.05
2022-12-14T05:28:53.144Z,99.75
2022-12-14T05:31:39.740Z,100.00
2022-12-14T05:34:26.295Z,100.00
2022-12-14T05:37:17.941Z,100.00
2022-12-14T05:40:05.365Z,100.00
2022-12-14T05:42:55.770Z,100.00
2022-12-14T05:45:42.450Z,100.00
2022-12-14T05:48:29.777Z,100.00
2022-12-14T05:51:16.042Z,100.00
2022-12-14T05:54:02.630Z,100.00
2022-12-14T05:56:48.963Z,100.00
2022-12-14T05:59:35.503Z,100.00
2022-12-14T06:02:21.691Z,100.00
2022-12-14T06:05:08.720Z,100.00
2022-12-14T06:07:54.982Z,100.00
2022-12-14T06:10:41.173Z,100.00
2022-12-14T06:13:27.610Z,100.00
2022-12-14T06:16:20.515Z,100.00
2022-12-14T06:19:07.747Z,100.00
2022-12-14T06:21:53.957Z,100.00
2022-12-14T06:24:40.274Z,100.00
2022-12-14T06:27:26.416Z,100.00
2022-12-14T06:30:15.424Z,100.00
2022-12-14T06:33:02.069Z,100.00
2022-12-14T06:35:48.614Z,100.00
2022-12-14T06:38:35.285Z,100.00
2022-12-14T06:41:24.217Z,100.00
2022-12-14T06:44:14.140Z,100.00
2022-12-14T06:47:00.753Z,100.00
2022-12-14T06:49:47.351Z,100.00
2022-12-14T06:52:35.192Z,100.00
2022-12-14T06:55:22.275Z,100.00
2022-12-14T06:58:15.783Z,100.00
2022-12-14T07:01:04.325Z,100.00
2022-12-14T07:03:56.365Z,100.00
2022-12-14T07:06:42.813Z,100.00
2022-12-14T07:09:29.484Z,100.00
2022-12-14T07:12:15.662Z,100.00
2022-12-14T07:15:02.257Z,100.00
2022-12-14T07:17:48.659Z,100.00
2022-12-14T07:20:35.023Z,100.00
2022-12-14T07:23:24.771Z,100.00
2022-12-14T07:26:19.747Z,100.00
2022-12-14T07:29:06.652Z,100.00
2022-12-14T07:31:53.095Z,100.00
2022-12-14T07:34:40.547Z,100.00
2022-12-14T07:37:27.243Z,100.00
2022-12-14T07:40:13.857Z,100.00
2022-12-14T07:43:00.047Z,100.00
2022-12-14T07:45:46.262Z,100.00
2022-12-14T07:48:33.924Z,100.00
2022-12-14T07:51:26.976Z,100.00
2022-12-14T07:54:13.583Z,100.00
2022-12-14T07:56:59.859Z,100.00
2022-12-14T07:59:46.048Z,100.00
2022-12-14T08:02:32.579Z,100.00
2022-12-14T08:05:19.114Z,100.00
2022-12-14T08:08:05.476Z,100.00
2022-12-14T08:10:51.800Z,100.00
2022-12-14T08:13:42.973Z,100.00
2022-12-14T08:16:29.834Z,100.00
2022-12-14T08:19:17.789Z,100.00
2022-12-14T08:22:04.099Z,100.00
2022-12-14T08:24:50.438Z,100.00
2022-12-14T08:27:36.894Z,100.00
2022-12-14T08:30:24.107Z,100.00
2022-12-14T08:33:10.773Z,100.00
2022-12-14T08:35:57.008Z,100.00
2022-12-14T08:38:43.515Z,100.00
2022-12-14T08:41:30.196Z,100.00
2022-12-14T08:44:17.416Z,100.00
2022-12-14T08:47:03.632Z,100.00
2022-12-14T08:49:50.099Z,100.00
2022-12-14T08:52:36.754Z,100.00
2022-12-14T08:55:28.239Z,100.00
2022-12-14T08:58:16.454Z,100.00
2022-12-14T09:01:06.818Z,100.00
2022-12-14T09:03:53.386Z,100.00
2022-12-14T09:06:39.706Z,100.00
2022-12-14T09:09:26.058Z,100.00
2022-12-14T09:12:12.308Z,100.00
2022-12-14T09:14:58.552Z,100.00
2022-12-14T09:17:45.125Z,100.00
2022-12-14T09:20:31.520Z,100.00
2022-12-14T09:23:17.730Z,100.00
2022-12-14T09:26:13.018Z,100.00
2022-12-14T09:28:59.307Z,100.00
2022-12-14T09:31:48.087Z,100.00
2022-12-14T09:34:34.410Z,100.00
2022-12-14T09:37:20.659Z,100.00
2022-12-14T09:40:07.917Z,100.00
2022-12-14T09:43:01.420Z,100.00
2022-12-14T09:45:53.375Z,100.00
2022-12-14T09:48:42.359Z,100.00
2022-12-14T09:51:35.590Z,100.00
2022-12-14T09:54:34.832Z,100.00
2022-12-14T09:57:30.160Z,100.00
2022-12-14T10:00:18.988Z,100.00
2022-12-14T10:03:17.722Z,100.00
2022-12-14T10:06:23.642Z,100.00
2022-12-14T10:09:32.587Z,100.00
2022-12-14T10:12:57.018Z,100.00
2022-12-14T10:15:50.683Z,100.00
2022-12-14T10:19:14.764Z,100.00
2022-12-14T10:22:06.825Z,100.00
2022-12-14T10:25:07.490Z,100.00
2022-12-14T10:28:13.091Z,100.00
2022-12-14T10:31:02.050Z,100.00
2022-12-14T10:33:48.343Z,100.00
2022-12-14T10:36:44.776Z,100.00
2022-12-14T10:39:37.518Z,100.00
2022-12-14T10:42:49.335Z,100.00
2022-12-14T10:45:48.268Z,100.00
2022-12-14T10:49:06.235Z,100.00
2022-12-14T10:52:19.145Z,100.00
2022-12-14T10:55:14.330Z,100.00
2022-12-14T10:58:01.341Z,100.00
2022-12-14T11:00:53.865Z,100.00
2022-12-14T11:03:42.366Z,100.00
2022-12-14T11:06:28.855Z,100.00
2022-12-14T11:09:23.715Z,100.00
2022-12-14T11:12:13.060Z,100.00
2022-12-14T11:15:06.467Z,100.00
2022-12-14T11:18:02.422Z,100.00
2022-12-14T11:20:51.760Z,100.00
2022-12-14T11:23:45.071Z,100.00
2022-12-14T11:26:35.419Z,100.00
2022-12-14T11:29:32.808Z,100.00
2022-12-14T11:32:23.955Z,100.00
2022-12-14T11:35:17.093Z,100.00
2022-12-14T11:38:04.387Z,100.00
2022-12-14T11:40:51.097Z,100.00
2022-12-14T11:43:40.238Z,100.00
2022-12-14T11:46:45.407Z,100.00
2022-12-14T11:49:37.800Z,100.00
2022-12-14T11:52:38.040Z,100.00
2022-12-14T11:55:27.799Z,100.00
2022-12-14T11:58:29.706Z,100.00
2022-12-14T12:01:19.990Z,100.00
2022-12-14T12:04:14.757Z,100.00
2022-12-14T12:07:22.949Z,100.00
2022-12-14T12:10:12.439Z,100.00
2022-12-14T12:13:04.875Z,100.00
2022-12-14T12:15:56.654Z,100.00
2022-12-14T12:18:46.769Z,100.00
2022-12-14T12:21:40.725Z,100.00
2022-12-14T12:24:38.775Z,100.00
2022-12-14T12:27:33.076Z,100.00
2022-12-14T12:30:28.608Z,100.00
2022-12-14T12:33:20.599Z,100.00
2022-12-14T12:36:07.917Z,100.00
2022-12-14T12:39:12.686Z,100.00
2022-12-14T12:42:17.759Z,100.00
2022-12-14T12:45:15.808Z,100.00
2022-12-14T12:48:16.513Z,100.00
2022-12-14T12:51:10.280Z,100.00
2022-12-14T12:54:01.291Z,100.00
2022-12-14T12:56:53.601Z,100.00
2022-12-14T12:59:47.037Z,100.00
2022-12-14T13:02:43.635Z,100.00
2022-12-14T13:05:48.665Z,100.00
2022-12-14T13:08:40.031Z,100.00
2022-12-14T13:11:31.488Z,100.00
2022-12-14T13:14:23.532Z,100.00
2022-12-14T13:17:37.489Z,100.00
2022-12-14T13:20:32.515Z,100.00
2022-12-14T13:26:57.808Z,100.00
2022-12-14T13:30:03.661Z,100.00
2022-12-14T13:33:01.921Z,100.00
2022-12-14T13:36:16.219Z,100.00
2022-12-14T13:39:29.755Z,100.00
2022-12-14T13:42:26.243Z,100.00
2022-12-14T13:45:21.945Z,100.00
2022-12-14T13:48:24.373Z,100.00
2022-12-14T13:51:28.490Z,100.00
2022-12-14T13:54:19.800Z,100.00
2022-12-14T13:57:21.448Z,100.00
2022-12-14T14:00:38.519Z,100.00
2022-12-14T14:03:34.197Z,100.00
2022-12-14T14:06:35.813Z,100.00
2022-12-14T14:09:34.535Z,100.00
2022-12-14T14:12:24.119Z,100.00
2022-12-14T14:16:18.940Z,100.00
2022-12-14T14:19:12.643Z,100.00
2022-12-14T14:22:23.238Z,100.00
2022-12-14T14:25:39.506Z,100.00
2022-12-14T14:28:29.892Z,100.00
2022-12-14T14:31:16.319Z,100.00
2022-12-14T14:34:03.002Z,100.00
2022-12-14T14:36:50.096Z,100.00
2022-12-14T14:39:56.130Z,100.00
2022-12-14T14:42:51.841Z,100.00
2022-12-14T14:45:52.466Z,100.00
2022-12-14T14:48:50.180Z,100.00
2022-12-14T14:51:36.939Z,100.00
2022-12-14T14:57:57.304Z,100.00
2022-12-14T15:01:00.223Z,100.00
2022-12-14T15:03:55.465Z,100.00
2022-12-14T15:06:47.118Z,100.00
2022-12-14T15:09:39.205Z,100.00
2022-12-14T15:12:52.812Z,100.00
2022-12-14T15:15:47.633Z,100.00
2022-12-14T15:18:34.209Z,100.00
2022-12-14T15:21:20.653Z,100.00
2022-12-14T15:24:13.237Z,100.00
2022-12-14T15:27:00.343Z,100.00
2022-12-14T15:29:49.585Z,100.00
2022-12-14T15:32:39.746Z,100.00
2022-12-14T15:35:42.522Z,100.00
2022-12-14T15:38:32.295Z,100.00
2022-12-14T15:41:20.842Z,100.00
2022-12-14T15:44:22.014Z,100.00
2022-12-14T15:47:21.892Z,100.00
2022-12-14T15:50:23.289Z,100.00
2022-12-14T15:53:29.026Z,100.00
2022-12-14T15:56:30.425Z,100.00
2022-12-14T15:59:31.128Z,100.00
2022-12-14T16:02:31.163Z,100.00
2022-12-14T16:05:21.750Z,100.00
2022-12-14T16:08:10.461Z,100.00
2022-12-14T16:11:01.173Z,100.00
2022-12-14T16:13:49.367Z,100.00
2022-12-14T16:16:35.757Z,100.00
2022-12-14T16:19:28.290Z,100.00
2022-12-14T16:22:23.303Z,100.00
2022-12-14T16:25:10.094Z,100.00
2022-12-14T16:27:56.705Z,100.00
2022-12-14T16:30:57.533Z,100.00
2022-12-14T16:33:44.496Z,100.00
2022-12-14T16:36:34.250Z,100.00
2022-12-14T16:39:23.167Z,100.00
2022-12-14T16:42:19.482Z,100.00
2022-12-14T16:45:06.475Z,100.00
2022-12-14T16:48:13.129Z,100.00
2022-12-14T16:51:51.287Z,100.00
2022-12-14T16:54:35.463Z,100.00
2022-12-14T16:57:24.240Z,100.00
2022-12-14T17:00:37.738Z,100.00
2022-12-14T17:03:24.480Z,100.00
2022-12-14T17:06:22.928Z,100.00
2022-12-14T17:09:20.041Z,100.00
2022-12-14T17:12:13.539Z,100.00
2022-12-14T17:15:00.175Z,100.00
2022-12-14T17:17:49.671Z,100.00
2022-12-14T17:20:36.929Z,100.00
2022-12-14T17:23:24.083Z,100.00
2022-12-14T17:26:19.646Z,100.00
2022-12-14T17:29:11.895Z,100.00
2022-12-14T17:32:01.271Z,100.00
2022-12-14T17:34:47.917Z,100.00
2022-12-14T17:37:36.494Z,100.00
2022-12-14T17:40:23.060Z,100.00
2022-12-14T17:43:15.441Z,100.00
2022-12-14T17:46:03.205Z,100.00
2022-12-14T17:48:49.963Z,100.00
2022-12-14T17:51:41.791Z,100.00
2022-12-14T17:54:29.286Z,100.00
2022-12-14T17:57:18.679Z,100.00
2022-12-14T18:00:24.088Z,100.00
2022-12-14T18:03:12.540Z,100.00
2022-12-14T18:05:59.775Z,100.00
2022-12-14T18:08:48.656Z,100.00
2022-12-14T18:11:34.971Z,100.00
2022-12-14T18:14:21.111Z,100.00
2022-12-14T18:17:11.451Z,100.00
2022-12-14T18:19:57.890Z,100.00
2022-12-14T18:22:49.787Z,100.00
2022-12-14T18:25:40.901Z,100.00
2022-12-14T18:28:27.129Z,100.00
2022-12-14T18:31:40.262Z,100.00
2022-12-14T18:34:26.891Z,100.00
2022-12-14T18:37:13.225Z,100.00
2022-12-14T18:39:59.427Z,100.00
2022-12-14T18:42:46.478Z,100.00
2022-12-14T18:45:34.605Z,100.00
2022-12-14T18:48:22.109Z,100.00
2022-12-14T18:51:13.955Z,100.00
2022-12-14T18:54:00.429Z,100.00
2022-12-14T18:56:46.831Z,100.00
2022-12-14T18:59:42.149Z,100.00
2022-12-14T19:02:28.947Z,100.00
2022-12-14T19:05:16.901Z,100.00
2022-12-14T19:08:03.916Z,100.00
2022-12-14T19:10:50.357Z,100.00
2022-12-14T19:13:36.596Z,100.00
2022-12-14T19:16:23.339Z,100.00
2022-12-14T19:19:09.633Z,100.00
2022-12-14T19:21:56.260Z,100.00
2022-12-14T19:24:45.337Z,100.00
2022-12-14T19:28:11.613Z,100.00
2022-12-14T19:30:44.331Z,100.00
2022-12-14T19:33:31.611Z,100.00
2022-12-14T19:36:18.342Z,100.00
2022-12-14T19:39:05.304Z,100.00
2022-12-14T19:41:54.335Z,100.00
2022-12-14T19:44:40.909Z,100.00
2022-12-14T19:47:27.045Z,100.00
2022-12-14T19:50:14.823Z,100.00
2022-12-14T19:53:01.112Z,100.00
2022-12-14T19:55:53.056Z,100.00
2022-12-14T19:58:40.137Z,100.00
2022-12-14T20:01:26.572Z,100.00
2022-12-14T20:04:13.209Z,100.00
2022-12-14T20:06:59.499Z,100.00
2022-12-14T20:09:45.827Z,100.00
2022-12-14T20:12:35.263Z,100.00
2022-12-14T20:15:21.451Z,100.00
2022-12-14T20:18:10.116Z,100.00
2022-12-14T20:21:08.226Z,100.00
2022-12-14T20:23:54.450Z,100.00
2022-12-14T20:26:40.983Z,100.00
2022-12-14T20:29:27.574Z,100.00
2022-12-14T20:32:13.837Z,100.00
2022-12-14T20:35:00.421Z,100.00
2022-12-14T20:37:46.681Z,100.00
2022-12-14T20:40:38.662Z,100.00
2022-12-14T20:43:25.486Z,100.00
2022-12-14T20:46:28.119Z,100.00
2022-12-14T20:49:19.876Z,100.00
2022-12-14T20:52:06.434Z,100.00
2022-12-14T20:54:53.521Z,100.00
2022-12-14T20:57:39.745Z,100.00
2022-12-14T21:00:26.603Z,100.00
2022-12-14T21:03:12.996Z,100.00
2022-12-14T21:06:00.090Z,100.00
2022-12-14T21:09:04.707Z,100.00
2022-12-14T21:12:09.995Z,100.00
2022-12-14T21:14:56.732Z,100.00
2022-12-14T21:17:43.447Z,100.00
2022-12-14T21:20:29.886Z,100.00
2022-12-14T21:23:16.175Z,100.00
2022-12-14T21:26:06.056Z,100.00
2022-12-14T21:28:54.143Z,100.00
2022-12-14T21:31:43.726Z,100.00
2022-12-14T21:34:30.510Z,100.00
2022-12-14T21:37:17.512Z,100.00
2022-12-14T21:40:04.484Z,100.00
2022-12-14T21:42:50.976Z,100.00
2022-12-14T21:45:37.715Z,100.00
2022-12-14T21:48:24.233Z,100.00
2022-12-14T21:51:16.449Z,100.00
2022-12-14T21:54:03.611Z,100.00
2022-12-14T21:57:09.267Z,100.00
2022-12-14T21:59:55.936Z,100.00
2022-12-14T22:02:42.882Z,100.00
2022-12-14T22:05:29.251Z,100.00
2022-12-14T22:08:15.760Z,100.00
2022-12-14T22:11:03.368Z,100.00
2022-12-14T22:13:49.621Z,100.00
2022-12-14T22:16:35.900Z,100.00
2022-12-14T22:19:24.186Z,100.00
2022-12-14T22:22:15.317Z,100.00
2022-12-14T22:25:01.702Z,100.00
2022-12-14T22:27:49.631Z,100.00
2022-12-14T22:30:36.608Z,100.00
2022-12-14T22:33:23.211Z,100.00
2022-12-14T22:36:09.655Z,100.00
2022-12-14T22:38:57.697Z,100.00
2022-12-14T22:41:44.542Z,100.00
2022-12-14T22:44:30.983Z,100.00
2022-12-14T22:47:17.601Z,100.00
2022-12-14T22:50:04.561Z,100.00
2022-12-14T22:52:50.812Z,100.00
2022-12-14T22:55:38.650Z,100.00
2022-12-14T22:58:27.167Z,100.00
2022-12-14T23:01:14.193Z,100.00
2022-12-14T23:04:01.282Z,100.00
2022-12-14T23:06:47.721Z,100.00
2022-12-14T23:09:52.814Z,100.00
2022-12-14T23:12:58.035Z,100.00
2022-12-14T23:16:02.812Z,100.00
2022-12-14T23:19:07.554Z,100.00
2022-12-14T23:22:12.307Z,100.00
2022-12-14T23:25:17.263Z,100.00
2022-12-14T23:28:23.866Z,100.00
2022-12-14T23:31:28.531Z,100.00
2022-12-14T23:34:33.728Z,100.00
2022-12-14T23:37:38.835Z,100.00
2022-12-14T23:40:43.841Z,100.00
2022-12-14T23:43:48.656Z,100.00
2022-12-14T23:46:53.785Z,100.00
2022-12-14T23:49:58.496Z,100.00
2022-12-14T23:53:03.476Z,100.00
2022-12-14T23:56:08.306Z,100.00
2022-12-14T23:59:14.147Z,100.00
